createdAt,value
2019-02-16T00:00:21.237Z,26.57
2019-02-16T00:05:30.343Z,26.00
2019-02-16T00:10:36.141Z,28.70
2019-02-16T00:15:42.063Z,26.07
2019-02-16T00:20:46.640Z,27.00
2019-02-16T00:25:51.387Z,26.53
2019-02-16T00:30:56.351Z,28.13
2019-02-16T00:36:01.157Z,28.00
2019-02-16T00:41:07.473Z,26.00
2019-02-16T00:46:12.625Z,24.37
2019-02-16T00:51:18.072Z,21.43
2019-02-16T00:56:22.922Z,18.37
2019-02-16T01:01:28.859Z,36.73
2019-02-16T01:06:33.683Z,25.87
2019-02-16T01:11:39.087Z,23.37
2019-02-16T01:16:46.231Z,19.87
2019-02-16T01:21:50.934Z,18.93
2019-02-16T01:26:56.436Z,22.47
2019-02-16T01:32:02.770Z,29.20
2019-02-16T01:37:07.756Z,30.50
2019-02-16T01:42:12.663Z,20.10
2019-02-16T01:47:18.437Z,21.33
2019-02-16T01:52:23.172Z,21.87
2019-02-16T01:57:27.809Z,21.20
2019-02-16T02:02:32.659Z,21.13
2019-02-16T02:07:38.064Z,20.63
2019-02-16T02:12:42.960Z,22.03
2019-02-16T02:17:48.172Z,20.67
2019-02-16T02:22:53.211Z,23.30
2019-02-16T02:27:58.018Z,22.07
2019-02-16T02:33:02.980Z,21.40
2019-02-16T02:38:09.140Z,21.33
2019-02-16T02:43:15.530Z,20.13
2019-02-16T02:48:20.360Z,20.50
2019-02-16T02:53:31.214Z,21.33
2019-02-16T02:58:32.718Z,19.77
2019-02-16T03:03:37.459Z,19.33
2019-02-16T03:08:42.613Z,20.27
2019-02-16T03:13:49.604Z,20.93
2019-02-16T03:18:54.762Z,20.37
2019-02-16T03:23:59.656Z,21.83
2019-02-16T03:29:07.514Z,22.37
2019-02-16T03:34:41.131Z,20.60
2019-02-16T03:39:46.116Z,20.93
2019-02-16T03:44:53.589Z,21.77
2019-02-16T03:49:59.869Z,17.53
2019-02-16T03:55:06.651Z,17.63
2019-02-16T04:00:12.892Z,18.07
2019-02-16T04:05:17.545Z,18.30
2019-02-16T04:10:23.239Z,18.03
2019-02-16T04:15:29.136Z,16.67
2019-02-16T04:20:38.461Z,18.67
2019-02-16T04:25:43.101Z,17.87
2019-02-16T04:30:48.226Z,18.73
2019-02-16T04:35:52.995Z,27.60
2019-02-16T04:40:57.635Z,27.37
2019-02-16T04:46:02.232Z,28.10
2019-02-16T04:51:07.022Z,25.23
2019-02-16T04:56:11.763Z,21.83
2019-02-16T05:01:16.409Z,22.30
2019-02-16T05:06:21.147Z,19.80
2019-02-16T05:11:25.946Z,20.23
2019-02-16T05:16:30.730Z,22.27
2019-02-16T05:21:38.548Z,24.30
2019-02-16T05:26:43.289Z,16.57
2019-02-16T05:31:48.024Z,19.67
2019-02-16T05:36:52.773Z,16.23
2019-02-16T05:41:58.851Z,16.13
2019-02-16T05:47:06.370Z,20.37
2019-02-16T05:52:12.533Z,25.47
2019-02-16T05:57:18.134Z,33.73
2019-02-16T06:02:22.939Z,31.77
2019-02-16T06:07:27.542Z,40.13
2019-02-16T06:12:33.427Z,40.13
2019-02-16T06:17:38.187Z,36.77
2019-02-16T06:22:45.207Z,30.43
2019-02-16T06:27:50.135Z,34.53
2019-02-16T06:32:55.289Z,33.07
2019-02-16T06:38:00.227Z,27.53
2019-02-16T06:43:05.081Z,21.90
2019-02-16T06:48:11.011Z,22.33
2019-02-16T06:53:15.814Z,23.73
2019-02-16T06:58:20.536Z,43.97
2019-02-16T07:03:26.616Z,44.70
2019-02-16T07:08:32.245Z,28.70
2019-02-16T07:13:37.712Z,32.90
2019-02-16T07:18:50.163Z,44.57
2019-02-16T07:23:54.918Z,43.10
2019-02-16T07:28:59.516Z,38.27
2019-02-16T07:34:05.424Z,32.60
2019-02-16T07:39:10.720Z,30.53
2019-02-16T07:44:32.405Z,40.57
2019-02-16T07:49:45.957Z,39.43
2019-02-16T07:54:52.336Z,35.27
2019-02-16T08:00:01.543Z,35.10
2019-02-16T08:05:17.283Z,35.17
2019-02-16T08:10:31.753Z,33.90
2019-02-16T08:15:41.228Z,34.73
2019-02-16T08:21:04.076Z,33.97
2019-02-16T08:26:27.046Z,36.37
2019-02-16T08:31:43.214Z,29.57
2019-02-16T08:36:51.685Z,32.83
2019-02-16T08:42:04.420Z,31.47
2019-02-16T08:47:14.587Z,17.40
2019-02-16T08:52:30.387Z,16.63
2019-02-16T08:57:45.473Z,14.27
2019-02-16T09:02:53.700Z,13.73
2019-02-16T09:08:15.130Z,12.70
2019-02-16T09:13:38.005Z,13.97
2019-02-16T09:18:59.429Z,10.33
2019-02-16T09:24:25.354Z,6.80
2019-02-16T09:29:31.561Z,7.20
2019-02-16T09:34:53.292Z,8.67
2019-02-16T09:40:03.667Z,6.87
2019-02-16T09:45:14.148Z,8.40
2019-02-16T09:50:39.099Z,9.23
2019-02-16T09:55:45.139Z,9.77
2019-02-16T10:01:06.770Z,8.63
2019-02-16T10:06:17.252Z,8.10
2019-02-16T10:11:23.534Z,8.43
2019-02-16T10:16:36.372Z,19.37
2019-02-16T10:21:47.250Z,7.33
2019-02-16T10:26:59.462Z,7.50
2019-02-16T10:32:07.385Z,10.37
2019-02-16T10:37:15.258Z,10.33
2019-02-16T10:42:27.829Z,10.63
2019-02-16T10:47:34.107Z,17.30
2019-02-16T10:52:40.388Z,12.27
2019-02-16T10:57:49.734Z,14.07
2019-02-16T11:03:10.349Z,12.40
2019-02-16T11:08:16.893Z,9.10
2019-02-16T11:13:42.650Z,47.37
2019-02-16T11:18:58.067Z,10.87
2019-02-16T11:24:11.626Z,11.57
2019-02-16T11:29:29.770Z,13.23
2019-02-16T11:34:43.646Z,9.50
2019-02-16T11:40:06.910Z,16.23
2019-02-16T11:45:34.145Z,9.73
2019-02-16T11:50:40.249Z,44.60
2019-02-16T11:55:58.409Z,8.93
2019-02-16T12:01:21.379Z,8.93
2019-02-16T12:06:29.230Z,9.30
2019-02-16T12:11:50.950Z,10.27
2019-02-16T12:16:58.753Z,14.20
2019-02-16T12:22:04.924Z,11.90
2019-02-16T12:27:21.762Z,9.73
2019-02-16T12:32:39.116Z,9.03
2019-02-16T12:37:46.810Z,13.13
2019-02-16T12:42:53.804Z,9.17
2019-02-16T12:47:59.951Z,8.43
2019-02-16T12:53:06.451Z,20.00
2019-02-16T12:58:21.680Z,9.40
2019-02-16T13:03:40.013Z,10.00
2019-02-16T13:08:46.294Z,7.70
2019-02-16T13:13:54.109Z,9.07
2019-02-16T13:19:09.492Z,11.17
2019-02-16T13:24:27.852Z,8.37
2019-02-16T13:29:37.125Z,10.53
2019-02-16T13:34:55.368Z,5.93
2019-02-16T13:40:19.987Z,7.73
2019-02-16T13:45:26.679Z,6.87
2019-02-16T13:50:36.122Z,8.03
2019-02-16T13:55:42.407Z,5.87
2019-02-16T14:00:48.639Z,7.40
2019-02-16T14:06:01.006Z,14.73
2019-02-16T14:11:11.010Z,15.00
2019-02-16T14:16:33.833Z,9.00
2019-02-16T14:21:41.456Z,12.30
2019-02-16T14:26:47.954Z,6.80
2019-02-16T14:31:52.889Z,7.10
2019-02-16T14:36:57.727Z,7.30
2019-02-16T14:42:04.127Z,7.70
2019-02-16T14:47:08.854Z,7.53
2019-02-16T14:52:13.606Z,11.47
2019-02-16T14:57:18.543Z,7.57
2019-02-16T15:02:23.396Z,8.87
2019-02-16T15:07:28.846Z,6.83
2019-02-16T15:12:34.783Z,7.23
2019-02-16T15:17:41.516Z,6.97
2019-02-16T15:22:46.763Z,6.10
2019-02-16T15:27:51.540Z,7.17
2019-02-16T15:32:56.347Z,8.90
2019-02-16T15:38:01.101Z,6.23
2019-02-16T15:43:05.938Z,7.60
2019-02-16T15:48:12.119Z,7.30
2019-02-16T15:53:18.714Z,6.63
2019-02-16T15:58:23.134Z,9.07
2019-02-16T16:03:28.633Z,6.00
2019-02-16T16:08:37.393Z,10.93
2019-02-16T16:14:00.366Z,8.40
2019-02-16T16:19:12.729Z,10.40
2019-02-16T16:24:28.221Z,10.50
2019-02-16T16:29:40.543Z,11.17
2019-02-16T16:34:46.925Z,18.50
2019-02-16T16:39:53.408Z,17.60
2019-02-16T16:45:16.388Z,16.90
2019-02-16T16:50:23.683Z,20.67
2019-02-16T16:55:31.498Z,41.63
2019-02-16T17:00:40.644Z,47.30
2019-02-16T17:05:59.633Z,23.50
2019-02-16T17:11:07.041Z,24.50
2019-02-16T17:16:13.590Z,26.33
2019-02-16T17:21:29.253Z,19.90
2019-02-16T17:26:38.452Z,14.57
2019-02-16T17:31:47.397Z,14.80
2019-02-16T17:37:06.063Z,15.97
2019-02-16T17:42:18.079Z,14.63
2019-02-16T17:47:24.358Z,13.33
2019-02-16T17:52:43.546Z,11.50
2019-02-16T17:57:56.306Z,12.70
2019-02-16T18:03:05.949Z,15.90
2019-02-16T18:08:18.280Z,20.27
2019-02-16T18:13:28.012Z,16.57
2019-02-16T18:18:53.481Z,14.07
2019-02-16T18:24:02.889Z,18.17
2019-02-16T18:29:12.518Z,21.53
2019-02-16T18:34:23.410Z,17.60
2019-02-16T18:39:31.168Z,20.13
2019-02-16T18:44:49.817Z,36.83
2019-02-16T18:49:58.999Z,74.07
2019-02-16T18:55:24.598Z,55.53
2019-02-16T19:00:32.726Z,73.27
2019-02-16T19:05:38.987Z,74.97
2019-02-16T19:10:46.633Z,51.50
2019-02-16T19:16:02.035Z,39.43
2019-02-16T19:21:17.697Z,38.93
2019-02-16T19:26:40.768Z,34.27
2019-02-16T19:31:50.120Z,28.97
2019-02-16T19:37:03.854Z,24.00
2019-02-16T19:42:11.794Z,22.63
2019-02-16T19:47:21.157Z,20.57
2019-02-16T19:52:31.921Z,19.33
2019-02-16T19:57:46.996Z,22.13
2019-02-16T20:02:54.891Z,24.90
2019-02-16T20:08:01.205Z,39.40
2019-02-16T20:13:14.446Z,22.30
2019-02-16T20:18:26.353Z,14.27
2019-02-16T20:23:34.273Z,23.93
2019-02-16T20:28:42.955Z,22.67
2019-02-16T20:34:04.642Z,38.03
2019-02-16T20:39:17.071Z,34.13
2019-02-16T20:44:26.441Z,28.67
2019-02-16T20:49:49.081Z,28.87
2019-02-16T20:54:55.362Z,30.90
2019-02-16T21:00:03.517Z,49.43
2019-02-16T21:05:13.005Z,40.03
2019-02-16T21:10:26.294Z,40.50
2019-02-16T21:15:42.438Z,41.40
2019-02-16T21:20:51.953Z,42.27
2019-02-16T21:26:01.572Z,35.83
2019-02-16T21:31:13.671Z,30.70
2019-02-16T21:36:20.301Z,24.47
2019-02-16T21:41:43.499Z,22.63
2019-02-16T21:46:57.334Z,18.87
2019-02-16T21:52:10.273Z,20.47
2019-02-16T21:57:17.880Z,21.63
2019-02-16T22:02:25.793Z,20.67
2019-02-16T22:07:44.154Z,19.23
2019-02-16T22:12:56.372Z,21.83
2019-02-16T22:18:01.012Z,41.27
2019-02-16T22:23:06.096Z,20.97
2019-02-16T22:28:18.245Z,16.77
2019-02-16T22:33:18.437Z,14.23
2019-02-16T22:38:23.655Z,15.03
2019-02-16T22:43:29.129Z,14.60
2019-02-16T22:48:35.525Z,18.17
2019-02-16T22:53:40.764Z,17.47
2019-02-16T22:58:46.103Z,16.07
2019-02-16T23:03:51.067Z,15.07
2019-02-16T23:08:56.268Z,12.67
2019-02-16T23:14:00.870Z,16.43
2019-02-16T23:19:07.749Z,16.40
2019-02-16T23:24:13.778Z,16.57
2019-02-16T23:29:19.720Z,17.83
2019-02-16T23:34:24.534Z,21.33
2019-02-16T23:39:31.015Z,20.63
2019-02-16T23:44:36.076Z,21.40
2019-02-16T23:49:40.817Z,19.43
2019-02-16T23:54:48.031Z,25.93
2019-02-16T23:59:53.545Z,22.10
